createdAt,value
2023-01-31T00:00:20.556Z,4.64
2023-01-31T00:01:20.458Z,4.51
2023-01-31T00:02:20.514Z,4.51
2023-01-31T00:03:20.395Z,4.64
2023-01-31T00:04:20.258Z,4.53
2023-01-31T00:05:20.761Z,4.53
2023-01-31T00:06:20.105Z,4.53
2023-01-31T00:07:20.029Z,4.59
2023-01-31T00:08:19.968Z,4.50
2023-01-31T00:09:19.921Z,4.59
2023-01-31T00:10:19.842Z,4.54
2023-01-31T00:11:19.799Z,4.51
2023-01-31T00:12:19.704Z,4.53
2023-01-31T00:13:19.613Z,4.50
2023-01-31T00:14:19.552Z,4.54
2023-01-31T00:15:19.878Z,4.53
2023-01-31T00:16:19.414Z,4.54
2023-01-31T00:17:19.337Z,4.53
2023-01-31T00:18:19.263Z,4.47
2023-01-31T00:19:19.192Z,4.56
2023-01-31T00:20:19.141Z,4.49
2023-01-31T00:21:19.078Z,4.53
2023-01-31T00:22:18.980Z,4.53
2023-01-31T00:23:18.903Z,4.56
2023-01-31T00:24:18.845Z,4.42
2023-01-31T00:25:19.020Z,4.46
2023-01-31T00:26:18.762Z,4.51
2023-01-31T00:27:18.621Z,4.51
2023-01-31T00:28:18.613Z,4.47
2023-01-31T00:29:18.487Z,4.56
2023-01-31T00:30:18.413Z,4.47
2023-01-31T00:31:18.463Z,4.47
2023-01-31T00:32:18.378Z,4.53
2023-01-31T00:33:18.210Z,4.50
2023-01-31T00:34:18.141Z,4.54
2023-01-31T00:35:18.400Z,4.49
2023-01-31T00:36:18.018Z,4.61
2023-01-31T00:37:17.938Z,4.50
2023-01-31T00:38:17.844Z,4.53
2023-01-31T00:39:17.786Z,4.54
2023-01-31T00:40:17.735Z,4.53
2023-01-31T00:41:17.640Z,4.51
2023-01-31T00:42:17.588Z,4.65
2023-01-31T00:43:17.512Z,4.50
2023-01-31T00:44:17.447Z,4.50
2023-01-31T00:45:17.755Z,4.50
2023-01-31T00:46:17.347Z,4.47
2023-01-31T00:47:17.229Z,4.50
2023-01-31T00:48:17.143Z,4.61
2023-01-31T00:49:17.089Z,4.65
2023-01-31T00:50:17.014Z,4.68
2023-01-31T00:51:16.981Z,4.68
2023-01-31T00:52:16.878Z,4.69
2023-01-31T00:53:16.850Z,4.80
2023-01-31T00:54:16.737Z,4.75
2023-01-31T00:55:16.673Z,4.77
2023-01-31T00:56:16.602Z,4.74
2023-01-31T00:57:16.543Z,4.79
2023-01-31T00:58:16.451Z,4.75
2023-01-31T00:59:16.376Z,4.75
2023-01-31T01:00:16.310Z,4.80
2023-01-31T01:01:16.239Z,4.86
2023-01-31T01:02:16.208Z,4.84
2023-01-31T01:03:16.100Z,4.88
2023-01-31T01:04:16.026Z,4.84
2023-01-31T01:05:15.963Z,4.94
2023-01-31T01:06:15.887Z,4.94
2023-01-31T01:07:15.812Z,4.97
2023-01-31T01:08:15.787Z,5.01
2023-01-31T01:09:15.701Z,5.01
2023-01-31T01:10:15.613Z,4.93
2023-01-31T01:11:15.524Z,4.96
2023-01-31T01:12:15.485Z,5.09
2023-01-31T01:13:15.414Z,5.11
2023-01-31T01:14:15.315Z,4.93
2023-01-31T01:15:15.251Z,5.05
2023-01-31T01:16:15.268Z,5.04
2023-01-31T01:17:15.117Z,5.08
2023-01-31T01:18:15.062Z,5.04
2023-01-31T01:19:14.972Z,5.02
2023-01-31T01:20:14.904Z,5.06
2023-01-31T01:21:14.847Z,5.12
2023-01-31T01:22:14.770Z,5.12
2023-01-31T01:23:14.708Z,5.08
2023-01-31T01:24:14.627Z,5.08
2023-01-31T01:25:14.553Z,5.04
2023-01-31T01:26:14.586Z,5.04
2023-01-31T01:27:14.410Z,5.04
2023-01-31T01:28:14.347Z,5.04
2023-01-31T01:29:14.276Z,5.06
2023-01-31T01:30:14.207Z,5.11
2023-01-31T01:31:14.276Z,5.04
2023-01-31T01:32:14.098Z,5.11
2023-01-31T01:33:14.001Z,5.08
2023-01-31T01:34:13.986Z,5.05
2023-01-31T01:35:13.914Z,5.09
2023-01-31T01:36:13.802Z,5.11
2023-01-31T01:37:13.710Z,5.09
2023-01-31T01:38:13.638Z,5.11
2023-01-31T01:39:13.568Z,5.11
2023-01-31T01:40:13.499Z,5.11
2023-01-31T01:41:13.445Z,5.19
2023-01-31T01:42:13.368Z,5.09
2023-01-31T01:43:13.285Z,5.09
2023-01-31T01:44:13.227Z,5.12
2023-01-31T01:45:13.177Z,5.09
2023-01-31T01:46:13.182Z,5.20
2023-01-31T01:47:13.016Z,5.08
2023-01-31T01:48:12.963Z,5.12
2023-01-31T01:49:12.877Z,5.11
2023-01-31T01:50:12.832Z,5.05
2023-01-31T01:51:12.736Z,5.06
2023-01-31T01:52:12.668Z,5.11
2023-01-31T01:53:12.625Z,5.08
2023-01-31T01:54:12.550Z,5.06
2023-01-31T01:55:12.463Z,5.09
2023-01-31T01:56:12.399Z,5.04
2023-01-31T01:57:12.313Z,5.08
2023-01-31T01:58:12.258Z,5.05
2023-01-31T01:59:12.207Z,5.12
2023-01-31T02:00:12.115Z,5.04
2023-01-31T02:01:12.201Z,5.04
2023-01-31T02:02:11.994Z,5.08
2023-01-31T02:03:11.890Z,5.06
2023-01-31T02:04:11.825Z,5.05
2023-01-31T02:05:11.758Z,5.14
2023-01-31T02:06:11.690Z,5.06
2023-01-31T02:07:11.630Z,5.14
2023-01-31T02:08:11.546Z,5.08
2023-01-31T02:09:11.535Z,5.06
2023-01-31T02:10:11.406Z,5.11
2023-01-31T02:11:11.328Z,5.04
2023-01-31T02:12:11.292Z,5.04
2023-01-31T02:13:11.241Z,5.09
2023-01-31T02:14:11.159Z,5.04
2023-01-31T02:15:11.056Z,5.06
2023-01-31T02:16:10.988Z,5.02
2023-01-31T02:17:10.981Z,5.08
2023-01-31T02:18:10.850Z,5.04
2023-01-31T02:19:10.776Z,5.05
2023-01-31T02:20:10.728Z,5.02
2023-01-31T02:21:10.635Z,5.08
2023-01-31T02:22:10.574Z,5.11
2023-01-31T02:23:10.505Z,5.08
2023-01-31T02:24:10.433Z,5.08
2023-01-31T02:25:10.370Z,5.06
2023-01-31T02:26:10.299Z,5.04
2023-01-31T02:27:10.223Z,5.04
2023-01-31T02:28:10.180Z,5.06
2023-01-31T02:29:10.079Z,5.09
2023-01-31T02:30:10.011Z,5.08
2023-01-31T02:31:09.987Z,5.11
2023-01-31T02:32:11.623Z,5.08
2023-01-31T02:33:09.822Z,5.09
2023-01-31T02:34:09.740Z,5.23
2023-01-31T02:35:09.660Z,5.09
2023-01-31T02:36:09.608Z,5.11
2023-01-31T02:37:09.531Z,5.12
2023-01-31T02:38:09.488Z,5.06
2023-01-31T02:39:09.456Z,5.09
2023-01-31T02:40:09.454Z,5.05
2023-01-31T02:41:09.242Z,5.08
2023-01-31T02:42:09.273Z,5.09
2023-01-31T02:43:09.107Z,5.06
2023-01-31T02:44:09.107Z,5.06
2023-01-31T02:45:08.976Z,5.08
2023-01-31T02:46:08.997Z,5.09
2023-01-31T02:47:08.855Z,5.01
2023-01-31T02:48:08.835Z,4.96
2023-01-31T02:49:08.749Z,4.93
2023-01-31T02:50:08.701Z,4.90
2023-01-31T02:51:08.585Z,4.87
2023-01-31T02:52:08.634Z,4.84
2023-01-31T02:53:08.453Z,4.79
2023-01-31T02:54:08.343Z,4.68
2023-01-31T02:55:08.270Z,4.59
2023-01-31T02:56:08.449Z,4.57
2023-01-31T02:57:08.152Z,4.53
2023-01-31T02:58:08.161Z,4.53
2023-01-31T02:59:08.011Z,4.53
2023-01-31T03:00:07.987Z,4.53
2023-01-31T03:01:07.913Z,4.53
2023-01-31T03:02:07.897Z,4.50
2023-01-31T03:03:07.719Z,4.51
2023-01-31T03:04:07.654Z,4.53
2023-01-31T03:05:07.564Z,4.50
2023-01-31T03:06:07.519Z,4.47
2023-01-31T03:07:07.441Z,4.50
2023-01-31T03:08:07.365Z,4.35
2023-01-31T03:09:07.289Z,4.34
2023-01-31T03:10:07.236Z,4.29
2023-01-31T03:11:07.163Z,4.32
2023-01-31T03:12:07.089Z,4.38
2023-01-31T03:13:07.011Z,4.25
2023-01-31T03:14:06.961Z,4.28
2023-01-31T03:15:06.867Z,4.36
2023-01-31T03:16:06.820Z,4.34
2023-01-31T03:17:06.736Z,4.20
2023-01-31T03:18:06.684Z,4.29
2023-01-31T03:19:06.576Z,4.26
2023-01-31T03:20:06.506Z,4.28
2023-01-31T03:21:06.447Z,4.24
2023-01-31T03:22:06.373Z,4.18
2023-01-31T03:23:06.318Z,4.26
2023-01-31T03:24:06.236Z,4.20
2023-01-31T03:25:06.154Z,4.25
2023-01-31T03:26:06.111Z,4.24
2023-01-31T03:27:06.035Z,4.18
2023-01-31T03:28:05.970Z,4.29
2023-01-31T03:29:05.891Z,4.20
2023-01-31T03:30:05.820Z,4.28
2023-01-31T03:31:05.839Z,4.24
2023-01-31T03:32:05.679Z,4.21
2023-01-31T03:33:05.623Z,4.21
2023-01-31T03:34:05.539Z,4.14
2023-01-31T03:35:05.460Z,4.13
2023-01-31T03:36:05.430Z,4.16
2023-01-31T03:37:05.324Z,4.13
2023-01-31T03:38:05.242Z,4.16
2023-01-31T03:39:05.181Z,4.18
2023-01-31T03:40:05.097Z,4.16
2023-01-31T03:41:05.034Z,4.07
2023-01-31T03:42:04.956Z,4.10
2023-01-31T03:43:04.912Z,4.14
2023-01-31T03:44:04.836Z,4.02
2023-01-31T03:45:04.744Z,4.07
2023-01-31T03:46:04.724Z,4.02
2023-01-31T03:47:04.623Z,4.00
2023-01-31T03:48:04.546Z,3.99
2023-01-31T03:49:04.471Z,4.06
2023-01-31T03:50:04.400Z,4.07
2023-01-31T03:51:04.346Z,3.95
2023-01-31T03:52:04.272Z,3.92
2023-01-31T03:53:04.186Z,3.96
2023-01-31T03:54:04.128Z,3.95
2023-01-31T03:55:04.074Z,3.99
2023-01-31T03:56:04.005Z,3.96
2023-01-31T03:57:03.905Z,3.95
2023-01-31T03:58:03.839Z,3.99
2023-01-31T03:59:03.767Z,3.84
2023-01-31T04:00:03.688Z,3.90
2023-01-31T04:01:03.615Z,3.86
2023-01-31T04:02:03.544Z,3.88
2023-01-31T04:03:03.540Z,3.86
2023-01-31T04:04:03.451Z,3.82
2023-01-31T04:05:03.340Z,3.99
2023-01-31T04:06:03.332Z,3.99
2023-01-31T04:07:03.208Z,3.89
2023-01-31T04:08:03.141Z,3.92
2023-01-31T04:09:03.059Z,3.90
2023-01-31T04:10:02.991Z,3.84
2023-01-31T04:11:02.932Z,3.90
2023-01-31T04:12:02.861Z,3.82
2023-01-31T04:13:02.794Z,3.81
2023-01-31T04:14:02.699Z,3.81
2023-01-31T04:15:02.638Z,3.81
2023-01-31T04:16:02.641Z,3.88
2023-01-31T04:17:02.489Z,3.74
2023-01-31T04:18:02.430Z,3.77
2023-01-31T04:19:02.387Z,3.86
2023-01-31T04:20:02.293Z,3.80
2023-01-31T04:21:02.211Z,3.77
2023-01-31T04:22:02.160Z,3.80
2023-01-31T04:23:02.073Z,3.77
2023-01-31T04:24:02.011Z,3.77
2023-01-31T04:25:01.919Z,3.81
2023-01-31T04:26:01.845Z,3.82
2023-01-31T04:27:01.784Z,3.80
2023-01-31T04:28:01.718Z,3.88
2023-01-31T04:29:01.634Z,3.81
2023-01-31T04:30:01.581Z,3.77
2023-01-31T04:31:01.577Z,3.72
2023-01-31T04:32:01.600Z,3.67
2023-01-31T04:33:01.353Z,3.60
2023-01-31T04:34:01.298Z,3.68
2023-01-31T04:35:02.421Z,3.70
2023-01-31T04:36:01.151Z,3.67
2023-01-31T04:37:01.071Z,3.70
2023-01-31T04:38:01.002Z,3.78
2023-01-31T04:39:00.932Z,3.74
2023-01-31T04:40:00.854Z,3.74
2023-01-31T04:41:00.797Z,3.74
2023-01-31T04:42:00.712Z,3.80
2023-01-31T04:43:00.656Z,3.72
2023-01-31T04:44:00.592Z,3.68
2023-01-31T04:45:00.518Z,3.77
2023-01-31T04:46:00.431Z,3.70
2023-01-31T04:47:00.453Z,3.59
2023-01-31T04:48:00.287Z,3.78
2023-01-31T04:49:00.228Z,3.74
2023-01-31T04:50:00.199Z,3.80
2023-01-31T04:51:00.099Z,3.64
2023-01-31T04:52:00.006Z,3.77
2023-01-31T04:52:59.953Z,3.71
2023-01-31T04:53:59.863Z,3.82
2023-01-31T04:54:59.795Z,3.77
2023-01-31T04:55:59.726Z,3.77
2023-01-31T04:56:59.652Z,3.88
2023-01-31T04:57:59.585Z,3.84
2023-01-31T04:58:59.511Z,3.72
2023-01-31T04:59:59.468Z,3.88
2023-01-31T05:00:59.487Z,3.86
2023-01-31T05:01:59.296Z,3.86
2023-01-31T05:02:59.268Z,3.81
2023-01-31T05:03:59.159Z,3.78
2023-01-31T05:04:59.086Z,3.84
2023-01-31T05:05:59.017Z,3.77
2023-01-31T05:06:58.951Z,3.80
2023-01-31T05:07:58.884Z,3.80
2023-01-31T05:09:10.561Z,3.77
2023-01-31T05:09:58.755Z,3.82
2023-01-31T05:10:58.659Z,3.88
2023-01-31T05:11:58.589Z,3.78
2023-01-31T05:12:58.517Z,3.80
2023-01-31T05:13:58.465Z,3.82
2023-01-31T05:14:58.392Z,3.77
2023-01-31T05:15:58.336Z,3.77
2023-01-31T05:16:58.234Z,3.75
2023-01-31T05:17:58.164Z,3.78
2023-01-31T05:18:58.102Z,3.78
2023-01-31T05:19:58.033Z,3.82
2023-01-31T05:20:57.966Z,3.80
2023-01-31T05:21:57.882Z,3.80
2023-01-31T05:22:57.813Z,3.89
2023-01-31T05:23:57.741Z,3.74
2023-01-31T05:24:58.677Z,3.81
2023-01-31T05:25:57.595Z,3.81
2023-01-31T05:26:57.526Z,3.84
2023-01-31T05:27:57.452Z,3.80
2023-01-31T05:28:57.388Z,3.81
2023-01-31T05:29:57.317Z,3.80
2023-01-31T05:30:57.326Z,3.84
2023-01-31T05:31:57.204Z,3.84
2023-01-31T05:32:57.103Z,3.90
2023-01-31T05:33:57.037Z,3.80
2023-01-31T05:34:56.967Z,3.88
2023-01-31T05:35:56.895Z,3.93
2023-01-31T05:36:56.830Z,3.89
2023-01-31T05:37:56.745Z,3.90
2023-01-31T05:38:56.684Z,3.99
2023-01-31T05:39:57.063Z,3.92
2023-01-31T05:40:56.544Z,4.00
2023-01-31T05:41:56.466Z,4.06
2023-01-31T05:42:56.397Z,4.08
2023-01-31T05:43:56.334Z,4.08
2023-01-31T05:44:56.259Z,4.02
2023-01-31T05:45:56.272Z,4.08
2023-01-31T05:46:56.118Z,4.08
2023-01-31T05:47:56.064Z,4.08
2023-01-31T05:48:55.981Z,4.13
2023-01-31T05:49:55.900Z,4.20
2023-01-31T05:50:55.837Z,4.25
2023-01-31T05:51:55.771Z,4.25
2023-01-31T05:52:55.699Z,4.25
2023-01-31T05:53:55.619Z,4.34
2023-01-31T05:54:55.549Z,4.31
2023-01-31T05:55:55.481Z,4.38
2023-01-31T05:56:55.420Z,4.31
2023-01-31T05:57:55.335Z,4.39
2023-01-31T05:58:55.276Z,4.32
2023-01-31T05:59:55.199Z,4.34
2023-01-31T06:00:55.151Z,4.34
2023-01-31T06:01:55.062Z,4.29
2023-01-31T06:02:55.013Z,4.44
2023-01-31T06:03:54.928Z,4.47
2023-01-31T06:04:54.846Z,4.51
2023-01-31T06:05:54.772Z,4.49
2023-01-31T06:06:54.714Z,4.57
2023-01-31T06:07:54.645Z,4.61
2023-01-31T06:08:54.573Z,4.67
2023-01-31T06:09:54.497Z,4.67
2023-01-31T06:10:54.423Z,4.65
2023-01-31T06:11:54.382Z,4.65
2023-01-31T06:12:54.290Z,4.68
2023-01-31T06:13:54.211Z,4.64
2023-01-31T06:14:54.142Z,4.71
2023-01-31T06:15:54.071Z,4.67
2023-01-31T06:16:54.077Z,4.68
2023-01-31T06:17:53.933Z,4.71
2023-01-31T06:18:53.866Z,4.71
2023-01-31T06:19:53.795Z,4.75
2023-01-31T06:20:53.736Z,4.79
2023-01-31T06:21:53.665Z,4.75
2023-01-31T06:22:53.587Z,4.87
2023-01-31T06:23:53.548Z,4.74
2023-01-31T06:24:53.456Z,4.77
2023-01-31T06:25:53.373Z,4.84
2023-01-31T06:26:53.341Z,4.84
2023-01-31T06:27:53.236Z,4.83
2023-01-31T06:28:53.162Z,4.86
2023-01-31T06:29:53.096Z,4.87
2023-01-31T06:30:53.148Z,4.93
2023-01-31T06:31:53.013Z,4.84
2023-01-31T06:32:52.885Z,4.90
2023-01-31T06:33:52.811Z,4.87
2023-01-31T06:34:52.761Z,4.91
2023-01-31T06:35:52.674Z,4.94
2023-01-31T06:36:52.610Z,4.93
2023-01-31T06:37:52.537Z,4.91
2023-01-31T06:38:53.408Z,4.96
2023-01-31T06:39:52.390Z,4.94
2023-01-31T06:40:52.331Z,4.94
2023-01-31T06:41:52.255Z,4.91
2023-01-31T06:42:52.204Z,5.02
2023-01-31T06:43:52.119Z,5.01
2023-01-31T06:44:52.062Z,5.05
2023-01-31T06:45:52.014Z,5.04
2023-01-31T06:46:51.911Z,4.96
2023-01-31T06:47:51.838Z,4.97
2023-01-31T06:48:51.762Z,5.05
2023-01-31T06:49:51.704Z,4.97
2023-01-31T06:50:51.630Z,5.04
2023-01-31T06:51:51.556Z,5.05
2023-01-31T06:52:51.484Z,5.02
2023-01-31T06:53:51.416Z,5.02
2023-01-31T06:54:51.385Z,5.04
2023-01-31T06:55:51.282Z,5.05
2023-01-31T06:56:51.223Z,5.06
2023-01-31T06:57:51.142Z,5.05
2023-01-31T06:58:51.065Z,5.06
2023-01-31T06:59:51.021Z,5.06
2023-01-31T07:00:50.924Z,5.06
2023-01-31T07:01:50.923Z,5.09
2023-01-31T07:02:50.814Z,5.04
2023-01-31T07:03:50.715Z,5.06
2023-01-31T07:04:50.686Z,5.14
2023-01-31T07:05:50.605Z,5.15
2023-01-31T07:06:50.508Z,5.09
2023-01-31T07:07:50.441Z,5.11
2023-01-31T07:08:50.370Z,5.23
2023-01-31T07:09:50.319Z,5.02
2023-01-31T07:10:50.234Z,5.14
2023-01-31T07:11:50.156Z,5.05
2023-01-31T07:12:50.097Z,5.12
2023-01-31T07:13:50.040Z,5.08
2023-01-31T07:14:49.953Z,5.17
2023-01-31T07:15:49.987Z,5.14
2023-01-31T07:16:49.811Z,5.17
2023-01-31T07:17:49.745Z,5.17
2023-01-31T07:18:49.672Z,5.17
2023-01-31T07:19:49.604Z,5.14
2023-01-31T07:20:49.547Z,5.11
2023-01-31T07:21:49.461Z,5.17
2023-01-31T07:22:49.418Z,5.09
2023-01-31T07:23:49.327Z,5.20
2023-01-31T07:24:49.254Z,5.22
2023-01-31T07:25:49.200Z,5.22
2023-01-31T07:26:49.197Z,5.20
2023-01-31T07:27:49.059Z,5.26
2023-01-31T07:28:48.991Z,5.14
2023-01-31T07:29:48.927Z,5.20
2023-01-31T07:30:48.934Z,5.19
2023-01-31T07:31:48.799Z,5.20
2023-01-31T07:32:48.709Z,5.20
2023-01-31T07:33:48.644Z,5.22
2023-01-31T07:34:48.580Z,5.17
2023-01-31T07:35:48.508Z,5.19
2023-01-31T07:36:48.424Z,5.20
2023-01-31T07:37:48.387Z,5.30
2023-01-31T07:38:48.298Z,5.19
2023-01-31T07:39:48.211Z,5.22
2023-01-31T07:40:48.142Z,5.17
2023-01-31T07:41:48.070Z,5.26
2023-01-31T07:42:48.025Z,5.23
2023-01-31T07:43:47.930Z,5.30
2023-01-31T07:44:47.863Z,5.27
2023-01-31T07:45:47.817Z,5.22
2023-01-31T07:46:47.741Z,5.17
2023-01-31T07:47:47.650Z,5.30
2023-01-31T07:48:47.601Z,5.32
2023-01-31T07:49:47.517Z,5.15
2023-01-31T07:50:48.021Z,5.24
2023-01-31T07:51:48.127Z,5.26
2023-01-31T07:52:47.785Z,5.32
2023-01-31T07:53:47.799Z,5.38
2023-01-31T07:54:47.264Z,5.35
2023-01-31T07:55:47.639Z,5.29
2023-01-31T07:56:47.646Z,5.40
2023-01-31T07:57:47.359Z,5.30
2023-01-31T07:58:47.376Z,5.32
2023-01-31T07:59:47.237Z,5.33
2023-01-31T08:00:47.039Z,5.37
2023-01-31T08:01:49.171Z,5.29
2023-01-31T08:02:46.832Z,5.35
2023-01-31T08:03:46.737Z,5.35
2023-01-31T08:04:46.648Z,5.37
2023-01-31T08:05:46.578Z,5.33
2023-01-31T08:06:46.423Z,5.38
2023-01-31T08:07:46.328Z,5.35
2023-01-31T08:08:46.202Z,5.41
2023-01-31T08:09:46.124Z,5.40
2023-01-31T08:10:46.056Z,5.35
2023-01-31T08:11:46.155Z,5.40
2023-01-31T08:12:46.935Z,5.38
2023-01-31T08:13:45.846Z,5.44
2023-01-31T08:14:45.813Z,5.45
2023-01-31T08:15:45.739Z,5.47
2023-01-31T08:16:45.716Z,5.44
2023-01-31T08:17:45.576Z,5.49
2023-01-31T08:18:45.497Z,5.33
2023-01-31T08:19:45.459Z,5.35
2023-01-31T08:20:45.377Z,5.47
2023-01-31T08:21:45.293Z,5.51
2023-01-31T08:22:45.238Z,5.42
2023-01-31T08:23:45.164Z,5.40
2023-01-31T08:24:45.097Z,5.49
2023-01-31T08:25:45.017Z,5.51
2023-01-31T08:26:45.005Z,5.49
2023-01-31T08:27:44.900Z,5.40
2023-01-31T08:28:44.932Z,5.55
2023-01-31T08:29:44.742Z,5.48
2023-01-31T08:30:50.398Z,5.45
2023-01-31T08:31:44.782Z,5.44
2023-01-31T08:32:44.550Z,5.44
2023-01-31T08:33:44.466Z,5.49
2023-01-31T08:34:44.394Z,5.49
2023-01-31T08:35:44.339Z,5.55
2023-01-31T08:36:44.296Z,5.49
2023-01-31T08:37:44.194Z,5.44
2023-01-31T08:38:44.137Z,5.49
2023-01-31T08:39:44.046Z,5.44
2023-01-31T08:40:43.981Z,5.42
2023-01-31T08:41:43.916Z,5.52
2023-01-31T08:42:43.835Z,5.47
2023-01-31T08:43:54.811Z,5.44
2023-01-31T08:44:43.712Z,5.47
2023-01-31T08:45:43.648Z,5.45
2023-01-31T08:46:43.579Z,5.44
2023-01-31T08:47:43.491Z,5.49
2023-01-31T08:48:43.439Z,5.44
2023-01-31T08:49:43.353Z,5.52
2023-01-31T08:50:43.285Z,5.52
2023-01-31T08:51:43.235Z,5.56
2023-01-31T08:52:43.149Z,5.52
2023-01-31T08:53:43.087Z,5.55
2023-01-31T08:54:43.082Z,5.56
2023-01-31T08:55:42.953Z,5.60
2023-01-31T08:56:42.864Z,5.60
2023-01-31T08:57:57.648Z,5.66
2023-01-31T08:58:42.728Z,5.63
2023-01-31T08:59:42.690Z,5.62
2023-01-31T09:00:42.587Z,5.62
2023-01-31T09:01:42.592Z,5.63
2023-01-31T09:02:42.497Z,5.63
2023-01-31T09:03:44.658Z,5.63
2023-01-31T09:04:42.310Z,5.65
2023-01-31T09:05:42.252Z,5.60
2023-01-31T09:06:42.208Z,5.70
2023-01-31T09:07:42.124Z,5.66
2023-01-31T09:08:42.054Z,5.66
2023-01-31T09:09:41.970Z,5.69
2023-01-31T09:10:41.895Z,5.69
2023-01-31T09:11:41.855Z,5.75
2023-01-31T09:12:41.756Z,5.69
2023-01-31T09:13:41.688Z,5.75
2023-01-31T09:14:41.617Z,5.77
2023-01-31T09:15:41.574Z,5.75
2023-01-31T09:16:43.489Z,5.70
2023-01-31T09:17:41.411Z,5.66
2023-01-31T09:18:41.427Z,5.74
2023-01-31T09:19:41.327Z,5.78
2023-01-31T09:20:41.210Z,5.77
2023-01-31T09:21:41.175Z,5.77
2023-01-31T09:22:41.089Z,5.73
2023-01-31T09:23:42.685Z,5.78
2023-01-31T09:24:40.925Z,5.78
2023-01-31T09:25:47.228Z,5.77
2023-01-31T09:26:40.830Z,5.65
2023-01-31T09:27:40.728Z,5.67
2023-01-31T09:28:40.651Z,5.78
2023-01-31T09:29:40.582Z,5.70
2023-01-31T09:30:40.579Z,5.75
2023-01-31T09:31:40.452Z,5.80
2023-01-31T09:32:40.376Z,5.78
2023-01-31T09:33:40.311Z,5.75
2023-01-31T09:34:40.255Z,5.80
2023-01-31T09:35:40.172Z,5.83
2023-01-31T09:36:40.134Z,5.84
2023-01-31T09:37:40.034Z,5.90
2023-01-31T09:38:39.983Z,5.84
2023-01-31T09:39:39.891Z,5.90
2023-01-31T09:40:39.864Z,5.90
2023-01-31T09:41:39.758Z,5.92
2023-01-31T09:42:39.687Z,5.96
2023-01-31T09:43:39.624Z,5.96
2023-01-31T09:44:39.556Z,6.01
2023-01-31T09:45:39.505Z,6.02
2023-01-31T09:46:39.452Z,5.95
2023-01-31T09:47:39.344Z,6.06
2023-01-31T09:48:39.273Z,6.05
2023-01-31T09:49:39.226Z,6.17
2023-01-31T09:50:39.176Z,6.19
2023-01-31T09:51:39.070Z,6.17
2023-01-31T09:52:38.998Z,6.39
2023-01-31T09:53:38.934Z,6.32
2023-01-31T09:54:38.863Z,6.36
2023-01-31T09:55:38.794Z,6.36
2023-01-31T09:56:38.722Z,6.39
2023-01-31T09:57:38.673Z,6.39
2023-01-31T09:58:38.597Z,6.42
2023-01-31T09:59:38.524Z,6.42
2023-01-31T10:00:38.476Z,6.39
2023-01-31T10:01:38.395Z,6.40
2023-01-31T10:02:38.319Z,6.35
2023-01-31T10:03:38.354Z,6.39
2023-01-31T10:04:38.174Z,6.42
2023-01-31T10:05:38.114Z,6.42
2023-01-31T10:06:38.050Z,6.53
2023-01-31T10:07:37.974Z,6.51
2023-01-31T10:08:37.908Z,6.51
2023-01-31T10:09:37.858Z,6.51
2023-01-31T10:10:37.772Z,6.45
2023-01-31T10:11:38.308Z,6.50
2023-01-31T10:12:37.638Z,6.58
2023-01-31T10:13:37.586Z,6.58
2023-01-31T10:14:37.496Z,6.60
2023-01-31T10:15:37.454Z,6.65
2023-01-31T10:16:37.379Z,6.57
2023-01-31T10:17:37.376Z,6.61
2023-01-31T10:18:37.224Z,6.55
2023-01-31T10:19:37.157Z,6.57
2023-01-31T10:20:37.241Z,6.50
2023-01-31T10:21:37.025Z,6.58
2023-01-31T10:22:37.115Z,6.57
2023-01-31T10:23:37.094Z,6.53
2023-01-31T10:24:36.836Z,6.57
2023-01-31T10:25:36.905Z,6.60
2023-01-31T10:26:36.711Z,6.61
2023-01-31T10:27:36.643Z,6.53
2023-01-31T10:28:36.678Z,6.48
2023-01-31T10:29:36.472Z,6.48
2023-01-31T10:30:36.419Z,6.54
2023-01-31T10:31:36.403Z,6.48
2023-01-31T10:32:36.275Z,6.48
2023-01-31T10:33:36.204Z,6.50
2023-01-31T10:34:36.136Z,6.50
2023-01-31T10:35:36.069Z,6.51
2023-01-31T10:36:35.999Z,6.50
2023-01-31T10:37:35.933Z,6.46
2023-01-31T10:38:35.865Z,6.51
2023-01-31T10:39:35.810Z,6.42
2023-01-31T10:40:35.720Z,6.39
2023-01-31T10:41:35.655Z,6.33
2023-01-31T10:42:35.587Z,6.45
2023-01-31T10:43:35.535Z,6.45
2023-01-31T10:44:35.452Z,6.53
2023-01-31T10:45:35.485Z,6.46
2023-01-31T10:46:35.318Z,6.40
2023-01-31T10:47:35.262Z,6.43
2023-01-31T10:48:35.177Z,6.50
2023-01-31T10:49:35.114Z,6.50
2023-01-31T10:50:35.065Z,6.64
2023-01-31T10:51:34.979Z,6.61
2023-01-31T10:52:34.904Z,6.58
2023-01-31T10:53:34.853Z,6.60
2023-01-31T10:54:34.775Z,6.57
2023-01-31T10:55:34.697Z,6.68
2023-01-31T10:56:34.647Z,6.61
2023-01-31T10:57:34.560Z,6.68
2023-01-31T10:58:34.512Z,6.71
2023-01-31T10:59:34.435Z,6.63
2023-01-31T11:00:34.360Z,6.72
2023-01-31T11:01:34.290Z,6.79
2023-01-31T11:02:34.249Z,6.71
2023-01-31T11:03:34.164Z,6.68
2023-01-31T11:04:34.083Z,6.63
2023-01-31T11:05:34.048Z,6.75
2023-01-31T11:06:33.943Z,6.76
2023-01-31T11:07:33.887Z,6.63
2023-01-31T11:08:33.810Z,6.72
2023-01-31T11:09:33.756Z,6.78
2023-01-31T11:10:33.680Z,6.82
2023-01-31T11:11:33.630Z,6.78
2023-01-31T11:12:33.539Z,6.78
2023-01-31T11:13:33.473Z,6.78
2023-01-31T11:14:33.400Z,6.73
2023-01-31T11:15:33.335Z,6.64
2023-01-31T11:16:33.311Z,6.79
2023-01-31T11:17:33.205Z,6.73
2023-01-31T11:18:33.129Z,6.75
2023-01-31T11:19:33.071Z,6.65
2023-01-31T11:20:33.012Z,6.78
2023-01-31T11:21:32.927Z,6.79
2023-01-31T11:22:32.869Z,6.79
2023-01-31T11:23:32.793Z,6.76
2023-01-31T11:24:32.754Z,6.82
2023-01-31T11:25:32.670Z,6.71
2023-01-31T11:26:32.719Z,6.83
2023-01-31T11:27:32.520Z,6.89
2023-01-31T11:28:32.450Z,6.94
2023-01-31T11:29:32.383Z,6.83
2023-01-31T11:30:32.377Z,6.93
2023-01-31T11:31:32.341Z,6.78
2023-01-31T11:32:32.190Z,6.83
2023-01-31T11:33:32.110Z,6.81
2023-01-31T11:34:32.038Z,6.78
2023-01-31T11:35:32.020Z,6.83
2023-01-31T11:36:31.907Z,6.72
2023-01-31T11:37:34.282Z,6.78
2023-01-31T11:38:31.775Z,6.79
2023-01-31T11:39:31.936Z,6.81
2023-01-31T11:40:31.688Z,6.82
2023-01-31T11:41:31.568Z,6.64
2023-01-31T11:42:31.530Z,6.86
2023-01-31T11:43:31.467Z,6.81
2023-01-31T11:44:31.363Z,6.82
2023-01-31T11:45:31.312Z,6.81
2023-01-31T11:46:31.310Z,6.78
2023-01-31T11:47:31.169Z,6.76
2023-01-31T11:48:31.123Z,6.76
2023-01-31T11:49:31.035Z,6.75
2023-01-31T11:50:30.975Z,6.68
2023-01-31T11:51:31.062Z,6.61
2023-01-31T11:52:30.813Z,6.76
2023-01-31T11:53:30.751Z,6.61
2023-01-31T11:54:30.730Z,6.73
2023-01-31T11:55:30.668Z,6.69
2023-01-31T11:56:30.542Z,6.78
2023-01-31T11:57:30.475Z,6.79
2023-01-31T11:58:30.427Z,6.69
2023-01-31T11:59:30.340Z,6.64
2023-01-31T12:00:30.301Z,6.76
2023-01-31T12:01:30.198Z,6.73
2023-01-31T12:02:30.172Z,6.76
2023-01-31T12:03:30.160Z,6.79
2023-01-31T12:04:29.994Z,6.81
2023-01-31T12:05:29.926Z,6.78
2023-01-31T12:06:29.858Z,6.75
2023-01-31T12:07:29.788Z,6.76
2023-01-31T12:08:30.274Z,6.76
2023-01-31T12:09:29.679Z,6.75
2023-01-31T12:10:29.611Z,6.82
2023-01-31T12:11:29.546Z,6.76
2023-01-31T12:12:29.447Z,6.75
2023-01-31T12:13:29.414Z,6.75
2023-01-31T12:14:29.332Z,6.71
2023-01-31T12:15:29.239Z,6.57
2023-01-31T12:16:29.191Z,6.61
2023-01-31T12:17:29.111Z,6.57
2023-01-31T12:18:29.052Z,6.63
2023-01-31T12:19:28.989Z,6.58
2023-01-31T12:20:29.288Z,6.46
2023-01-31T12:21:28.844Z,6.53
2023-01-31T12:22:28.762Z,6.51
2023-01-31T12:23:28.752Z,6.48
2023-01-31T12:24:28.623Z,6.38
2023-01-31T12:25:28.569Z,6.46
2023-01-31T12:26:28.525Z,6.39
2023-01-31T12:27:28.428Z,6.39
2023-01-31T12:28:28.371Z,6.43
2023-01-31T12:29:28.295Z,6.38
2023-01-31T12:30:28.352Z,6.50
2023-01-31T12:31:28.199Z,6.40
2023-01-31T12:32:28.082Z,6.38
2023-01-31T12:33:28.013Z,6.40
2023-01-31T12:34:27.948Z,6.35
2023-01-31T12:35:27.869Z,6.42
2023-01-31T12:36:27.814Z,6.43
2023-01-31T12:37:27.741Z,6.42
2023-01-31T12:38:27.663Z,6.42
2023-01-31T12:39:27.596Z,6.40
2023-01-31T12:40:29.552Z,6.36
2023-01-31T12:41:27.470Z,6.33
2023-01-31T12:42:27.386Z,6.40
2023-01-31T12:43:27.312Z,6.25
2023-01-31T12:44:27.279Z,6.25
2023-01-31T12:45:27.202Z,6.25
2023-01-31T12:46:27.176Z,6.20
2023-01-31T12:47:27.041Z,6.19
2023-01-31T12:48:26.998Z,6.20
2023-01-31T12:49:26.907Z,6.11
2023-01-31T12:50:26.837Z,6.14
2023-01-31T12:51:26.802Z,6.11
2023-01-31T12:52:26.701Z,6.14
2023-01-31T12:53:26.635Z,6.11
2023-01-31T12:54:26.571Z,6.20
2023-01-31T12:55:26.519Z,6.14
2023-01-31T12:56:26.418Z,6.06
2023-01-31T12:57:26.354Z,6.13
2023-01-31T12:58:26.304Z,6.06
2023-01-31T12:59:26.218Z,6.11
2023-01-31T13:00:26.153Z,5.96
2023-01-31T13:01:26.156Z,5.95
2023-01-31T13:02:26.052Z,5.99
2023-01-31T13:03:25.945Z,6.01
2023-01-31T13:04:25.872Z,6.01
2023-01-31T13:05:28.189Z,5.99
2023-01-31T13:06:25.727Z,6.02
2023-01-31T13:07:25.673Z,5.96
2023-01-31T13:08:25.598Z,6.01
2023-01-31T13:09:25.519Z,6.03
2023-01-31T13:10:25.449Z,5.96
2023-01-31T13:11:25.377Z,6.02
2023-01-31T13:12:25.323Z,6.01
2023-01-31T13:13:25.238Z,5.96
2023-01-31T13:14:25.187Z,5.95
2023-01-31T13:15:25.138Z,5.93
2023-01-31T13:16:25.048Z,5.92
2023-01-31T13:17:24.961Z,5.92